sensor_id;sensor_type;location;lat;lon;timestamp;pressure;altitude;pressure_sealevel;temperature;humidity
9335;BME280;4706;41.844;26.082;2023-04-09T00:01:09;101217.06;;;10.22;78.63
9335;BME280;4706;41.844;26.082;2023-04-09T00:03:35;101222.19;;;10.44;78.26
9335;BME280;4706;41.844;26.082;2023-04-09T00:06:01;101230.91;;;10.62;77.19
9335;BME280;4706;41.844;26.082;2023-04-09T00:08:26;101217.66;;;10.69;76.54
9335;BME280;4706;41.844;26.082;2023-04-09T00:10:52;101222.56;;;10.77;75.92
9335;BME280;4706;41.844;26.082;2023-04-09T00:13:18;101208.22;;;10.80;75.33
9335;BME280;4706;41.844;26.082;2023-04-09T00:15:45;101215.50;;;11.00;74.75
9335;BME280;4706;41.844;26.082;2023-04-09T00:18:11;101222.59;;;11.06;74.34
9335;BME280;4706;41.844;26.082;2023-04-09T00:20:37;101232.50;;;11.07;74.06
9335;BME280;4706;41.844;26.082;2023-04-09T00:23:02;101217.44;;;11.00;74.07
9335;BME280;4706;41.844;26.082;2023-04-09T00:25:28;101215.19;;;11.02;73.32
9335;BME280;4706;41.844;26.082;2023-04-09T00:27:54;101223.13;;;11.08;73.45
9335;BME280;4706;41.844;26.082;2023-04-09T00:30:20;101225.94;;;11.03;73.75
9335;BME280;4706;41.844;26.082;2023-04-09T00:32:46;101226.69;;;11.09;73.79
9335;BME280;4706;41.844;26.082;2023-04-09T00:35:12;101226.69;;;11.09;73.92
9335;BME280;4706;41.844;26.082;2023-04-09T00:37:37;101216.81;;;11.08;73.43
9335;BME280;4706;41.844;26.082;2023-04-09T00:40:03;101212.69;;;11.05;72.87
9335;BME280;4706;41.844;26.082;2023-04-09T00:42:32;101217.09;;;11.06;73.24
9335;BME280;4706;41.844;26.082;2023-04-09T00:44:58;101235.44;;;11.21;72.87
9335;BME280;4706;41.844;26.082;2023-04-09T00:47:26;101231.78;;;11.26;72.75
9335;BME280;4706;41.844;26.082;2023-04-09T00:49:53;101233.63;;;11.35;72.23
9335;BME280;4706;41.844;26.082;2023-04-09T00:52:19;101228.72;;;11.32;72.56
9335;BME280;4706;41.844;26.082;2023-04-09T00:54:49;101224.88;;;11.28;72.46
9335;BME280;4706;41.844;26.082;2023-04-09T00:57:15;101241.63;;;11.32;72.78
9335;BME280;4706;41.844;26.082;2023-04-09T00:59:42;101234.78;;;11.29;72.16
9335;BME280;4706;41.844;26.082;2023-04-09T01:02:07;101233.97;;;11.29;72.10
9335;BME280;4706;41.844;26.082;2023-04-09T01:04:33;101215.53;;;11.24;71.92
9335;BME280;4706;41.844;26.082;2023-04-09T01:07:06;101235.88;;;11.28;71.48
9335;BME280;4706;41.844;26.082;2023-04-09T01:09:41;101228.47;;;11.29;70.76
9335;BME280;4706;41.844;26.082;2023-04-09T01:12:20;101235.78;;;11.09;70.24
9335;BME280;4706;41.844;26.082;2023-04-09T01:15:10;101239.16;;;11.01;69.89
9335;BME280;4706;41.844;26.082;2023-04-09T01:17:47;101239.91;;;10.73;71.04
9335;BME280;4706;41.844;26.082;2023-04-09T01:20:25;101233.59;;;10.72;70.89
9335;BME280;4706;41.844;26.082;2023-04-09T01:25:57;101228.16;;;10.57;71.67
9335;BME280;4706;41.844;26.082;2023-04-09T01:28:34;101226.25;;;10.57;72.25
9335;BME280;4706;41.844;26.082;2023-04-09T01:31:12;101220.16;;;10.65;71.43
9335;BME280;4706;41.844;26.082;2023-04-09T01:33:40;101231.13;;;10.70;71.45
9335;BME280;4706;41.844;26.082;2023-04-09T01:36:06;101232.78;;;10.66;71.27
9335;BME280;4706;41.844;26.082;2023-04-09T01:38:34;101229.78;;;10.63;71.29
9335;BME280;4706;41.844;26.082;2023-04-09T01:41:02;101234.47;;;10.62;70.32
9335;BME280;4706;41.844;26.082;2023-04-09T01:43:29;101235.69;;;10.46;70.05
9335;BME280;4706;41.844;26.082;2023-04-09T01:45:56;101231.41;;;10.19;71.44
9335;BME280;4706;41.844;26.082;2023-04-09T01:48:23;101226.47;;;10.11;71.76
9335;BME280;4706;41.844;26.082;2023-04-09T01:50:50;101225.38;;;10.12;72.16
9335;BME280;4706;41.844;26.082;2023-04-09T01:53:15;101230.88;;;10.12;72.01
9335;BME280;4706;41.844;26.082;2023-04-09T01:55:42;101225.94;;;10.09;72.14
9335;BME280;4706;41.844;26.082;2023-04-09T01:58:07;101225.97;;;10.04;72.13
9335;BME280;4706;41.844;26.082;2023-04-09T02:00:37;101230.34;;;10.05;72.27
9335;BME280;4706;41.844;26.082;2023-04-09T02:03:25;101224.84;;;10.00;72.14
9335;BME280;4706;41.844;26.082;2023-04-09T02:06:08;101236.97;;;9.99;72.28
9335;BME280;4706;41.844;26.082;2023-04-09T02:08:42;101230.94;;;9.92;72.76
9335;BME280;4706;41.844;26.082;2023-04-09T02:11:08;101225.13;;;10.04;72.24
9335;BME280;4706;41.844;26.082;2023-04-09T02:13:36;101228.97;;;10.03;71.99
9335;BME280;4706;41.844;26.082;2023-04-09T02:16:02;101230.34;;;10.00;72.76
9335;BME280;4706;41.844;26.082;2023-04-09T02:18:29;101222.16;;;9.85;72.26
9335;BME280;4706;41.844;26.082;2023-04-09T02:20:56;101233.13;;;9.95;71.63
9335;BME280;4706;41.844;26.082;2023-04-09T02:23:22;101222.44;;;9.83;71.86
9335;BME280;4706;41.844;26.082;2023-04-09T02:25:50;101227.41;;;9.86;71.65
9335;BME280;4706;41.844;26.082;2023-04-09T02:28:15;101235.34;;;9.88;71.81
9335;BME280;4706;41.844;26.082;2023-04-09T02:30:41;101226.31;;;9.82;72.02
9335;BME280;4706;41.844;26.082;2023-04-09T02:33:06;101221.91;;;9.86;71.60
9335;BME280;4706;41.844;26.082;2023-04-09T02:35:32;101230.94;;;9.92;71.54
9335;BME280;4706;41.844;26.082;2023-04-09T02:37:58;101236.69;;;9.95;71.36
9335;BME280;4706;41.844;26.082;2023-04-09T02:40:23;101233.69;;;9.97;71.09
9335;BME280;4706;41.844;26.082;2023-04-09T02:42:50;101232.03;;;9.91;71.40
9335;BME280;4706;41.844;26.082;2023-04-09T02:45:16;101232.03;;;9.91;71.28
9335;BME280;4706;41.844;26.082;2023-04-09T02:47:41;101232.31;;;9.94;71.28
9335;BME280;4706;41.844;26.082;2023-04-09T02:50:07;101229.28;;;10.01;70.99
9335;BME280;4706;41.844;26.082;2023-04-09T02:52:33;101232.00;;;10.06;70.96
9335;BME280;4706;41.844;26.082;2023-04-09T02:54:58;101228.44;;;10.01;71.14
9335;BME280;4706;41.844;26.082;2023-04-09T02:57:23;101242.72;;;10.03;71.24
9335;BME280;4706;41.844;26.082;2023-04-09T02:59:49;101247.41;;;9.97;71.43
9335;BME280;4706;41.844;26.082;2023-04-09T03:02:14;101235.88;;;9.95;71.43
9335;BME280;4706;41.844;26.082;2023-04-09T03:04:40;101239.13;;;10.07;71.09
9335;BME280;4706;41.844;26.082;2023-04-09T03:07:05;101227.59;;;10.05;71.16
9335;BME280;4706;41.844;26.082;2023-04-09T03:09:31;101221.56;;;9.98;71.04
9335;BME280;4706;41.844;26.082;2023-04-09T03:11:56;101235.28;;;10.03;71.29
9335;BME280;4706;41.844;26.082;2023-04-09T03:14:23;101233.63;;;10.07;71.17
9335;BME280;4706;41.844;26.082;2023-04-09T03:16:48;101235.56;;;10.07;71.42
9335;BME280;4706;41.844;26.082;2023-04-09T03:19:14;101225.13;;;10.04;71.18
9335;BME280;4706;41.844;26.082;2023-04-09T03:21:40;101243.53;;;10.08;71.27
9335;BME280;4706;41.844;26.082;2023-04-09T03:24:05;101258.69;;;10.01;71.41
9335;BME280;4706;41.844;26.082;2023-04-09T03:26:31;101252.34;;;10.00;71.49
9335;BME280;4706;41.844;26.082;2023-04-09T03:29:04;101258.38;;;10.02;70.57
9335;BME280;4706;41.844;26.082;2023-04-09T03:31:31;101247.41;;;9.92;71.08
9335;BME280;4706;41.844;26.082;2023-04-09T03:33:56;101244.41;;;9.93;70.66
9335;BME280;4706;41.844;26.082;2023-04-09T03:36:22;101241.06;;;9.96;70.64
9335;BME280;4706;41.844;26.082;2023-04-09T03:38:48;101253.75;;;9.97;70.79
9335;BME280;4706;41.844;26.082;2023-04-09T03:41:13;101254.28;;;9.94;70.79
9335;BME280;4706;41.844;26.082;2023-04-09T03:43:39;101254.56;;;9.88;71.00
9335;BME280;4706;41.844;26.082;2023-04-09T03:46:14;101254.88;;;9.81;70.84
9335;BME280;4706;41.844;26.082;2023-04-09T03:48:40;101256.81;;;9.86;71.19
9335;BME280;4706;41.844;26.082;2023-04-09T03:51:10;101260.91;;;9.83;71.61
9335;BME280;4706;41.844;26.082;2023-04-09T03:53:37;101259.25;;;9.87;72.23
9335;BME280;4706;41.844;26.082;2023-04-09T03:56:02;101263.94;;;9.87;72.42
9335;BME280;4706;41.844;26.082;2023-04-09T03:58:28;101268.59;;;9.81;72.86
9335;BME280;4706;41.844;26.082;2023-04-09T04:00:53;101272.47;;;9.80;72.56
9335;BME280;4706;41.844;26.082;2023-04-09T04:03:19;101259.59;;;9.70;72.49
9335;BME280;4706;41.844;26.082;2023-04-09T04:05:44;101262.03;;;9.72;72.93
9335;BME280;4706;41.844;26.082;2023-04-09T04:08:10;101261.47;;;9.70;72.88
9335;BME280;4706;41.844;26.082;2023-04-09T04:10:35;101270.00;;;9.79;72.77
9335;BME280;4706;41.844;26.082;2023-04-09T04:13:01;101264.50;;;9.73;72.58
9335;BME280;4706;41.844;26.082;2023-04-09T04:15:27;101271.09;;;9.83;72.36
9335;BME280;4706;41.844;26.082;2023-04-09T04:17:53;101257.09;;;9.79;71.88
9335;BME280;4706;41.844;26.082;2023-04-09T04:20:19;101253.78;;;9.77;71.44
9335;BME280;4706;41.844;26.082;2023-04-09T04:22:44;101250.75;;;9.84;70.45
9335;BME280;4706;41.844;26.082;2023-04-09T04:25:10;101277.13;;;9.90;70.94
9335;BME280;4706;41.844;26.082;2023-04-09T04:27:35;101273.28;;;9.86;71.36
9335;BME280;4706;41.844;26.082;2023-04-09T04:30:01;101275.44;;;9.89;70.93
9335;BME280;4706;41.844;26.082;2023-04-09T04:32:27;101274.69;;;9.68;71.00
9335;BME280;4706;41.844;26.082;2023-04-09T04:34:53;101268.91;;;9.80;71.04
9335;BME280;4706;41.844;26.082;2023-04-09T04:37:19;101277.13;;;9.90;71.24
9335;BME280;4706;41.844;26.082;2023-04-09T04:39:44;101274.09;;;9.81;71.75
9335;BME280;4706;41.844;26.082;2023-04-09T04:42:10;101273.84;;;9.83;71.45
9335;BME280;4706;41.844;26.082;2023-04-09T04:44:35;101273.22;;;9.96;70.82
9335;BME280;4706;41.844;26.082;2023-04-09T04:47:00;101279.56;;;9.91;70.83
9335;BME280;4706;41.844;26.082;2023-04-09T04:49:26;101282.03;;;9.98;71.04
9335;BME280;4706;41.844;26.082;2023-04-09T04:51:51;101289.94;;;10.15;70.29
9335;BME280;4706;41.844;26.082;2023-04-09T04:54:17;101284.44;;;10.15;70.82
9335;BME280;4706;41.844;26.082;2023-04-09T04:56:42;101283.94;;;10.03;71.54
9335;BME280;4706;41.844;26.082;2023-04-09T04:59:08;101284.75;;;10.13;71.40
9335;BME280;4706;41.844;26.082;2023-04-09T05:01:33;101276.78;;;10.12;71.20
9335;BME280;4706;41.844;26.082;2023-04-09T05:03:59;101271.53;;;10.20;71.51
9335;BME280;4706;41.844;26.082;2023-04-09T05:06:27;101286.63;;;10.28;70.50
9335;BME280;4706;41.844;26.082;2023-04-09T05:08:54;101274.84;;;10.12;71.25
9335;BME280;4706;41.844;26.082;2023-04-09T05:11:25;101284.16;;;10.27;71.36
9335;BME280;4706;41.844;26.082;2023-04-09T05:13:51;101275.91;;;10.27;71.09
9335;BME280;4706;41.844;26.082;2023-04-09T05:16:18;101288.56;;;10.17;70.88
9335;BME280;4706;41.844;26.082;2023-04-09T05:18:43;101292.13;;;10.28;72.07
9335;BME280;4706;41.844;26.082;2023-04-09T05:21:09;101291.28;;;10.22;70.45
9335;BME280;4706;41.844;26.082;2023-04-09T05:23:35;101289.69;;;10.16;71.83
9335;BME280;4706;41.844;26.082;2023-04-09T05:26:00;101299.84;;;10.11;71.63
9335;BME280;4706;41.844;26.082;2023-04-09T05:28:26;101293.78;;;10.19;72.38
9335;BME280;4706;41.844;26.082;2023-04-09T05:30:51;101298.78;;;10.07;72.75
9335;BME280;4706;41.844;26.082;2023-04-09T05:33:17;101295.72;;;10.13;73.64
9335;BME280;4706;41.844;26.082;2023-04-09T05:35:43;101303.41;;;10.32;73.52
9335;BME280;4706;41.844;26.082;2023-04-09T05:38:08;101302.28;;;10.22;72.74
9335;BME280;4706;41.844;26.082;2023-04-09T05:40:34;101280.34;;;10.12;73.02
9335;BME280;4706;41.844;26.082;2023-04-09T05:43:00;101298.16;;;10.30;73.78
9335;BME280;4706;41.844;26.082;2023-04-09T05:45:25;101301.75;;;10.31;74.54
9335;BME280;4706;41.844;26.082;2023-04-09T05:47:53;101306.13;;;10.37;74.77
9335;BME280;4706;41.844;26.082;2023-04-09T05:50:19;101307.97;;;10.52;74.52
9335;BME280;4706;41.844;26.082;2023-04-09T05:52:44;101309.34;;;10.49;73.30
9335;BME280;4706;41.844;26.082;2023-04-09T05:55:10;101287.13;;;10.45;73.25
9335;BME280;4706;41.844;26.082;2023-04-09T05:57:36;101300.91;;;10.35;73.97
9335;BME280;4706;41.844;26.082;2023-04-09T06:00:01;101294.84;;;10.38;74.13
9335;BME280;4706;41.844;26.082;2023-04-09T06:02:27;101289.03;;;10.50;74.51
9335;BME280;4706;41.844;26.082;2023-04-09T06:04:52;101293.97;;;10.48;74.91
9335;BME280;4706;41.844;26.082;2023-04-09T06:07:18;101298.66;;;10.48;75.15
9335;BME280;4706;41.844;26.082;2023-04-09T06:09:44;101293.19;;;10.42;74.51
9335;BME280;4706;41.844;26.082;2023-04-09T06:12:13;101302.31;;;10.28;75.44
9335;BME280;4706;41.844;26.082;2023-04-09T06:14:40;101307.53;;;10.34;75.65
9335;BME280;4706;41.844;26.082;2023-04-09T06:17:05;101305.28;;;10.36;76.28
9335;BME280;4706;41.844;26.082;2023-04-09T06:19:31;101314.81;;;10.59;75.31
9335;BME280;4706;41.844;26.082;2023-04-09T06:21:57;101315.75;;;10.24;76.32
9335;BME280;4706;41.844;26.082;2023-04-09T06:24:22;101313.56;;;10.26;76.79
9335;BME280;4706;41.844;26.082;2023-04-09T06:26:48;101309.72;;;10.32;76.82
9335;BME280;4706;41.844;26.082;2023-04-09T06:29:14;101318.47;;;10.44;77.21
9335;BME280;4706;41.844;26.082;2023-04-09T06:31:40;101310.19;;;10.50;75.41
9335;BME280;4706;41.844;26.082;2023-04-09T06:34:06;101326.94;;;10.58;75.96
9335;BME280;4706;41.844;26.082;2023-04-09T06:36:32;101320.09;;;10.51;76.65
9335;BME280;4706;41.844;26.082;2023-04-09T06:38:57;101301.09;;;10.54;76.23
9335;BME280;4706;41.844;26.082;2023-04-09T06:41:23;101316.31;;;10.86;76.04
9335;BME280;4706;41.844;26.082;2023-04-09T06:43:49;101319.94;;;10.81;75.34
9335;BME280;4706;41.844;26.082;2023-04-09T06:46:15;101315.50;;;10.85;75.19
9335;BME280;4706;41.844;26.082;2023-04-09T06:48:42;101327.63;;;10.84;74.91
9335;BME280;4706;41.844;26.082;2023-04-09T06:51:09;101327.97;;;10.67;75.56
9335;BME280;4706;41.844;26.082;2023-04-09T06:53:36;101327.59;;;10.89;75.74
9335;BME280;4706;41.844;26.082;2023-04-09T06:56:01;101318.72;;;11.03;74.04
9335;BME280;4706;41.844;26.082;2023-04-09T06:58:27;101319.53;;;10.98;75.59
9335;BME280;4706;41.844;26.082;2023-04-09T07:00:53;101299.75;;;10.96;75.76
9335;BME280;4706;41.844;26.082;2023-04-09T07:03:18;101314.78;;;11.14;76.11
9335;BME280;4706;41.844;26.082;2023-04-09T07:05:44;101309.97;;;11.30;74.97
9335;BME280;4706;41.844;26.082;2023-04-09T07:08:09;101307.09;;;11.45;74.04
9335;BME280;4706;41.844;26.082;2023-04-09T07:10:35;101298.81;;;11.45;72.95
9335;BME280;4706;41.844;26.082;2023-04-09T07:13:01;101315.28;;;11.55;72.60
9335;BME280;4706;41.844;26.082;2023-04-09T07:15:26;101318.66;;;11.76;72.86
9335;BME280;4706;41.844;26.082;2023-04-09T07:17:52;101306.41;;;11.93;72.70
9335;BME280;4706;41.844;26.082;2023-04-09T07:20:17;101307.28;;;11.83;72.51
9335;BME280;4706;41.844;26.082;2023-04-09T07:22:43;101310.47;;;12.00;72.57
9335;BME280;4706;41.844;26.082;2023-04-09T07:25:09;101312.28;;;12.34;71.89
9335;BME280;4706;41.844;26.082;2023-04-09T07:27:34;101300.00;;;12.45;68.84
9335;BME280;4706;41.844;26.082;2023-04-09T07:30:00;101309.81;;;12.75;68.70
9335;BME280;4706;41.844;26.082;2023-04-09T07:32:26;101312.72;;;13.03;68.42
9335;BME280;4706;41.844;26.082;2023-04-09T07:34:55;101314.19;;;13.14;67.28
9335;BME280;4706;41.844;26.082;2023-04-09T07:37:21;101312.41;;;13.23;66.65
9335;BME280;4706;41.844;26.082;2023-04-09T07:39:48;101306.72;;;13.15;67.13
9335;BME280;4706;41.844;26.082;2023-04-09T07:42:14;101297.19;;;13.26;66.25
9335;BME280;4706;41.844;26.082;2023-04-09T07:44:39;101315.47;;;13.41;65.83
9335;BME280;4706;41.844;26.082;2023-04-09T07:47:06;101318.97;;;13.27;66.23
9335;BME280;4706;41.844;26.082;2023-04-09T07:49:32;101312.25;;;13.33;66.42
9335;BME280;4706;41.844;26.082;2023-04-09T07:51:59;101322.41;;;13.71;65.45
9335;BME280;4706;41.844;26.082;2023-04-09T07:54:25;101321.50;;;13.75;64.68
9335;BME280;4706;41.844;26.082;2023-04-09T07:56:51;101321.09;;;13.82;64.39
9335;BME280;4706;41.844;26.082;2023-04-09T07:59:16;101329.34;;;13.68;64.80
9335;BME280;4706;41.844;26.082;2023-04-09T08:01:42;101335.03;;;13.44;65.44
9335;BME280;4706;41.844;26.082;2023-04-09T08:04:09;101330.53;;;13.48;65.85
9335;BME280;4706;41.844;26.082;2023-04-09T08:06:34;101328.47;;;13.73;65.27
9335;BME280;4706;41.844;26.082;2023-04-09T08:09:01;101325.97;;;14.04;64.63
9335;BME280;4706;41.844;26.082;2023-04-09T08:11:27;101325.69;;;14.33;63.75
9335;BME280;4706;41.844;26.082;2023-04-09T08:13:53;101323.69;;;14.47;62.24
9335;BME280;4706;41.844;26.082;2023-04-09T08:16:19;101334.47;;;14.63;62.39
9335;BME280;4706;41.844;26.082;2023-04-09T08:18:46;101329.31;;;14.84;61.07
9335;BME280;4706;41.844;26.082;2023-04-09T08:21:11;101326.97;;;14.91;60.48
9335;BME280;4706;41.844;26.082;2023-04-09T08:23:37;101328.81;;;15.18;60.54
9335;BME280;4706;41.844;26.082;2023-04-09T08:26:03;101324.16;;;15.49;58.72
9335;BME280;4706;41.844;26.082;2023-04-09T08:28:28;101325.44;;;15.88;57.40
9335;BME280;4706;41.844;26.082;2023-04-09T08:30:54;101319.66;;;16.16;56.19
9335;BME280;4706;41.844;26.082;2023-04-09T08:33:20;101322.78;;;16.14;55.99
9335;BME280;4706;41.844;26.082;2023-04-09T08:35:45;101325.84;;;16.52;56.05
9335;BME280;4706;41.844;26.082;2023-04-09T08:38:11;101326.72;;;16.70;53.51
9335;BME280;4706;41.844;26.082;2023-04-09T08:40:36;101329.34;;;16.84;52.68
9335;BME280;4706;41.844;26.082;2023-04-09T08:43:06;101320.72;;;16.94;52.62
9335;BME280;4706;41.844;26.082;2023-04-09T08:45:32;101323.19;;;17.13;53.10
9335;BME280;4706;41.844;26.082;2023-04-09T08:47:57;101314.34;;;17.20;52.47
9335;BME280;4706;41.844;26.082;2023-04-09T08:50:29;101307.81;;;17.42;52.58
9335;BME280;4706;41.844;26.082;2023-04-09T08:52:55;101305.13;;;17.63;51.16
9335;BME280;4706;41.844;26.082;2023-04-09T08:55:22;101302.66;;;17.87;51.59
9335;BME280;4706;41.844;26.082;2023-04-09T08:57:48;101299.47;;;18.06;49.65
9335;BME280;4706;41.844;26.082;2023-04-09T09:00:14;101289.34;;;18.02;49.95
9335;BME280;4706;41.844;26.082;2023-04-09T09:03:09;101291.69;;;17.82;49.95
9335;BME280;4706;41.844;26.082;2023-04-09T09:05:38;101297.09;;;17.70;50.81
9335;BME280;4706;41.844;26.082;2023-04-09T09:08:05;101296.94;;;17.84;50.58
9335;BME280;4706;41.844;26.082;2023-04-09T09:10:44;101287.72;;;17.92;50.74
9335;BME280;4706;41.844;26.082;2023-04-09T09:13:23;101287.38;;;18.02;49.03
9335;BME280;4706;41.844;26.082;2023-04-09T09:15:54;101278.72;;;17.95;48.70
9335;BME280;4706;41.844;26.082;2023-04-09T09:18:37;101274.53;;;17.71;49.76
9335;BME280;4706;41.844;26.082;2023-04-09T09:21:12;101270.28;;;18.12;49.87
9335;BME280;4706;41.844;26.082;2023-04-09T09:23:38;101278.19;;;18.40;49.55
9335;BME280;4706;41.844;26.082;2023-04-09T09:26:33;101276.72;;;18.63;46.83
9335;BME280;4706;41.844;26.082;2023-04-09T09:29:02;101266.16;;;18.69;47.10
9335;BME280;4706;41.844;26.082;2023-04-09T09:31:29;101265.41;;;18.89;44.99
9335;BME280;4706;41.844;26.082;2023-04-09T09:33:55;101260.78;;;18.93;44.87
9335;BME280;4706;41.844;26.082;2023-04-09T09:36:31;101258.22;;;19.22;44.76
9335;BME280;4706;41.844;26.082;2023-04-09T09:38:58;101249.03;;;19.54;45.37
9335;BME280;4706;41.844;26.082;2023-04-09T09:41:26;101257.00;;;19.64;44.29
9335;BME280;4706;41.844;26.082;2023-04-09T09:43:52;101249.69;;;19.97;43.74
9335;BME280;4706;41.844;26.082;2023-04-09T09:46:17;101244.38;;;20.16;42.02
9335;BME280;4706;41.844;26.082;2023-04-09T09:48:45;101246.44;;;20.44;40.59
9335;BME280;4706;41.844;26.082;2023-04-09T09:51:12;101242.56;;;20.60;40.66
9335;BME280;4706;41.844;26.082;2023-04-09T09:53:40;101244.34;;;20.53;39.62
9335;BME280;4706;41.844;26.082;2023-04-09T09:56:13;101232.47;;;20.56;38.65
9335;BME280;4706;41.844;26.082;2023-04-09T09:58:44;101242.47;;;20.69;39.84
9335;BME280;4706;41.844;26.082;2023-04-09T10:01:14;101227.56;;;20.93;39.65
9335;BME280;4706;41.844;26.082;2023-04-09T10:03:43;101225.28;;;20.83;38.99
9335;BME280;4706;41.844;26.082;2023-04-09T10:06:10;101219.78;;;20.58;39.74
9335;BME280;4706;41.844;26.082;2023-04-09T10:08:36;101219.50;;;20.64;39.09
9335;BME280;4706;41.844;26.082;2023-04-09T10:11:05;101224.13;;;20.84;38.97
9335;BME280;4706;41.844;26.082;2023-04-09T10:13:39;101226.66;;;20.89;38.48
9335;BME280;4706;41.844;26.082;2023-04-09T10:16:06;101222.69;;;20.90;36.65
9335;BME280;4706;41.844;26.082;2023-04-09T10:18:32;101215.44;;;20.61;37.02
9335;BME280;4706;41.844;26.082;2023-04-09T10:21:27;101207.63;;;20.67;38.05
9335;BME280;4706;41.844;26.082;2023-04-09T10:23:55;101198.44;;;20.94;38.48
9335;BME280;4706;41.844;26.082;2023-04-09T10:26:24;101192.97;;;21.14;36.46
9335;BME280;4706;41.844;26.082;2023-04-09T10:29:16;101201.75;;;21.12;36.19
9335;BME280;4706;41.844;26.082;2023-04-09T10:34:16;101183.16;;;21.48;35.25
9335;BME280;4706;41.844;26.082;2023-04-09T10:36:44;101189.56;;;21.80;35.15
9335;BME280;4706;41.844;26.082;2023-04-09T10:39:12;101175.59;;;21.99;34.20
9335;BME280;4706;41.844;26.082;2023-04-09T10:41:38;101168.78;;;21.97;33.37
9335;BME280;4706;41.844;26.082;2023-04-09T10:44:06;101162.66;;;21.60;33.87
9335;BME280;4706;41.844;26.082;2023-04-09T10:46:35;101164.91;;;21.38;34.35
9335;BME280;4706;41.844;26.082;2023-04-09T10:49:18;101158.13;;;21.55;35.26
9335;BME280;4706;41.844;26.082;2023-04-09T10:51:51;101158.03;;;21.36;35.80
9335;BME280;4706;41.844;26.082;2023-04-09T10:59:52;101149.75;;;22.22;33.95
9335;BME280;4706;41.844;26.082;2023-04-09T11:07:16;101129.63;;;22.74;34.68
9335;BME280;4706;41.844;26.082;2023-04-09T11:09:43;101136.19;;;22.82;34.29
9335;BME280;4706;41.844;26.082;2023-04-09T11:12:12;101127.28;;;22.76;34.83
9335;BME280;4706;41.844;26.082;2023-04-09T11:14:37;101124.41;;;22.92;34.06
9335;BME280;4706;41.844;26.082;2023-04-09T11:17:03;101127.66;;;22.94;34.73
9335;BME280;4706;41.844;26.082;2023-04-09T11:19:28;101124.69;;;23.07;34.23
9335;BME280;4706;41.844;26.082;2023-04-09T11:21:54;101124.69;;;22.87;34.04
9335;BME280;4706;41.844;26.082;2023-04-09T11:24:20;101109.66;;;23.18;33.68
9335;BME280;4706;41.844;26.082;2023-04-09T11:26:47;101104.72;;;23.35;33.45
9335;BME280;4706;41.844;26.082;2023-04-09T11:29:13;101109.91;;;23.33;33.47
9335;BME280;4706;41.844;26.082;2023-04-09T11:31:43;101102.78;;;23.16;33.34
9335;BME280;4706;41.844;26.082;2023-04-09T11:34:09;101102.59;;;22.86;33.75
9335;BME280;4706;41.844;26.082;2023-04-09T11:36:36;101100.59;;;22.86;34.18
9335;BME280;4706;41.844;26.082;2023-04-09T11:39:04;101097.16;;;22.93;35.03
9335;BME280;4706;41.844;26.082;2023-04-09T11:41:34;101091.44;;;22.89;34.69
9335;BME280;4706;41.844;26.082;2023-04-09T11:44:01;101092.00;;;22.95;34.36
9335;BME280;4706;41.844;26.082;2023-04-09T11:46:29;101081.94;;;22.74;34.47
9335;BME280;4706;41.844;26.082;2023-04-09T11:48:57;101075.69;;;22.81;35.02
9335;BME280;4706;41.844;26.082;2023-04-09T11:51:22;101077.16;;;22.94;34.54
9335;BME280;4706;41.844;26.082;2023-04-09T11:53:48;101078.28;;;23.13;34.18
9335;BME280;4706;41.844;26.082;2023-04-09T11:56:15;101064.31;;;22.93;33.72
9335;BME280;4706;41.844;26.082;2023-04-09T11:58:45;101072.84;;;23.00;33.77
9335;BME280;4706;41.844;26.082;2023-04-09T12:01:14;101052.72;;;22.95;34.03
9335;BME280;4706;41.844;26.082;2023-04-09T12:03:40;101066.38;;;22.96;33.84
9335;BME280;4706;41.844;26.082;2023-04-09T12:06:06;101062.19;;;22.67;34.12
9335;BME280;4706;41.844;26.082;2023-04-09T12:08:34;101056.50;;;22.64;34.49
9335;BME280;4706;41.844;26.082;2023-04-09T12:11:27;101057.53;;;22.75;34.51
9335;BME280;4706;41.844;26.082;2023-04-09T12:14:05;101038.75;;;22.79;34.94
9335;BME280;4706;41.844;26.082;2023-04-09T12:16:34;101040.50;;;23.07;35.03
9335;BME280;4706;41.844;26.082;2023-04-09T12:19:08;101035.56;;;23.23;33.41
9335;BME280;4706;41.844;26.082;2023-04-09T12:21:52;101027.88;;;23.20;33.47
9335;BME280;4706;41.844;26.082;2023-04-09T12:24:21;101022.06;;;23.06;34.15
9335;BME280;4706;41.844;26.082;2023-04-09T12:26:48;101022.09;;;23.09;33.46
9335;BME280;4706;41.844;26.082;2023-04-09T12:29:16;101018.00;;;23.03;34.21
9335;BME280;4706;41.844;26.082;2023-04-09T12:31:42;101024.66;;;23.18;33.89
9335;BME280;4706;41.844;26.082;2023-04-09T12:34:08;101025.78;;;23.13;34.21
9335;BME280;4706;41.844;26.082;2023-04-09T12:36:34;101011.06;;;22.97;34.15
9335;BME280;4706;41.844;26.082;2023-04-09T12:38:59;101011.81;;;22.94;34.25
9335;BME280;4706;41.844;26.082;2023-04-09T12:41:25;101013.28;;;22.88;34.26
9335;BME280;4706;41.844;26.082;2023-04-09T12:43:51;100988.72;;;22.81;34.55
9335;BME280;4706;41.844;26.082;2023-04-09T12:46:19;101003.63;;;22.85;34.33
9335;BME280;4706;41.844;26.082;2023-04-09T12:48:45;101005.38;;;22.70;34.62
9335;BME280;4706;41.844;26.082;2023-04-09T12:51:14;101000.22;;;22.72;35.05
9335;BME280;4706;41.844;26.082;2023-04-09T12:53:39;101001.34;;;22.48;35.27
9335;BME280;4706;41.844;26.082;2023-04-09T12:56:05;101004.88;;;22.65;35.77
9335;BME280;4706;41.844;26.082;2023-04-09T12:58:31;100996.94;;;22.70;34.86
9335;BME280;4706;41.844;26.082;2023-04-09T13:00:57;101003.16;;;22.60;35.15
9335;BME280;4706;41.844;26.082;2023-04-09T13:03:23;100989.41;;;22.51;34.90
9335;BME280;4706;41.844;26.082;2023-04-09T13:05:49;100987.06;;;22.15;35.32
9335;BME280;4706;41.844;26.082;2023-04-09T13:08:14;100996.88;;;22.05;35.66
9335;BME280;4706;41.844;26.082;2023-04-09T13:10:40;100992.97;;;21.90;35.76
9335;BME280;4706;41.844;26.082;2023-04-09T13:13:06;100980.34;;;21.80;35.62
9335;BME280;4706;41.844;26.082;2023-04-09T13:15:42;100986.31;;;21.79;35.65
9335;BME280;4706;41.844;26.082;2023-04-09T13:18:09;100973.50;;;21.78;36.33
9335;BME280;4706;41.844;26.082;2023-04-09T13:20:34;100973.72;;;21.89;35.87